createdAt,value
2018-06-30T00:03:13.317Z,16.1
2018-06-30T00:09:08.321Z,13.83
2018-06-30T00:15:03.301Z,12.97
2018-06-30T00:20:58.326Z,11.18
2018-06-30T00:26:53.305Z,10.3
2018-06-30T00:32:48.347Z,10.58
2018-06-30T00:38:43.333Z,9.73
2018-06-30T00:44:38.345Z,9.61
2018-06-30T00:50:33.389Z,9.47
2018-06-30T00:56:28.368Z,10.23
2018-06-30T01:02:23.381Z,10.84
2018-06-30T01:08:18.388Z,10.49
2018-06-30T01:14:13.355Z,12.43
2018-06-30T01:20:08.336Z,13.26
2018-06-30T01:26:03.382Z,13.72
2018-06-30T01:31:58.347Z,12.53
2018-06-30T01:37:53.399Z,11.89
2018-06-30T01:43:48.372Z,11.66
2018-06-30T01:49:43.413Z,11.24
2018-06-30T01:55:38.368Z,10.82
2018-06-30T02:01:33.421Z,10.13
2018-06-30T02:07:28.403Z,10.46
2018-06-30T02:13:23.460Z,11.03
2018-06-30T02:19:18.531Z,10.58
2018-06-30T02:25:13.385Z,10.9
2018-06-30T02:31:08.397Z,10.9
2018-06-30T02:37:03.437Z,11.22
2018-06-30T02:42:58.395Z,10.57
2018-06-30T02:48:53.425Z,10.13
2018-06-30T02:54:48.432Z,10.91
2018-06-30T03:00:43.428Z,11.21
2018-06-30T03:06:38.440Z,12.3
2018-06-30T03:12:33.446Z,12.42
2018-06-30T03:18:28.461Z,11.44
2018-06-30T03:24:23.505Z,11.11
2018-06-30T03:30:18.491Z,12
2018-06-30T03:36:13.466Z,11.1
2018-06-30T03:42:08.477Z,10.71
2018-06-30T03:48:03.501Z,10.03
2018-06-30T03:53:58.477Z,9.4
2018-06-30T03:59:53.513Z,8.9
2018-06-30T04:05:48.484Z,8.87
2018-06-30T04:11:43.518Z,8.66
2018-06-30T04:17:38.509Z,9.3
2018-06-30T04:23:33.548Z,9.24
2018-06-30T04:29:28.608Z,9.6
2018-06-30T04:35:23.510Z,9.75
2018-06-30T04:41:18.497Z,10.18
2018-06-30T04:47:13.528Z,9.63
2018-06-30T04:53:08.575Z,10.83
2018-06-30T04:59:03.550Z,10.75
2018-06-30T05:04:58.619Z,10.72
2018-06-30T05:10:53.514Z,11.18
2018-06-30T05:16:48.543Z,11.16
2018-06-30T05:22:43.526Z,11.66
2018-06-30T05:28:38.600Z,11.53
2018-06-30T05:34:33.522Z,11.22
2018-06-30T05:40:28.558Z,11.95
2018-06-30T05:46:23.585Z,13.8
2018-06-30T05:52:18.563Z,12.65
2018-06-30T05:58:13.655Z,13.57
2018-06-30T06:04:08.640Z,14.07
2018-06-30T06:10:03.697Z,13.54
2018-06-30T06:15:58.599Z,18.42
2018-06-30T06:21:53.594Z,22.47
2018-06-30T06:27:48.713Z,19.72
2018-06-30T06:33:43.575Z,17.53
2018-06-30T06:39:38.613Z,19.69
2018-06-30T06:45:33.628Z,16.91
2018-06-30T06:51:28.627Z,16.41
2018-06-30T06:57:23.712Z,17.3
2018-06-30T07:03:18.637Z,16.85
2018-06-30T07:09:13.591Z,16.96
2018-06-30T07:15:08.602Z,14.69
2018-06-30T07:21:03.694Z,15.83
2018-06-30T07:26:58.665Z,14.23
2018-06-30T07:32:53.628Z,13.84
2018-06-30T07:38:48.667Z,14.63
2018-06-30T07:44:43.652Z,13.92
2018-06-30T07:50:38.714Z,12.43
2018-06-30T07:56:33.725Z,13.03
2018-06-30T08:02:28.732Z,11.82
2018-06-30T08:08:23.705Z,10.49
2018-06-30T08:14:18.681Z,11.3
2018-06-30T08:20:13.727Z,11.08
2018-06-30T08:26:08.716Z,10.58
2018-06-30T08:32:03.796Z,9.79
2018-06-30T08:37:58.796Z,10.52
2018-06-30T08:43:53.679Z,9.39
2018-06-30T08:49:48.694Z,9.75
2018-06-30T08:55:43.731Z,9.69
2018-06-30T09:01:38.753Z,10.35
2018-06-30T09:07:33.795Z,9.1
2018-06-30T09:13:28.774Z,8.58
2018-06-30T09:19:23.786Z,8.81
2018-06-30T09:25:18.729Z,8.05
2018-06-30T09:31:13.779Z,7.38
2018-06-30T09:37:08.788Z,7.71
2018-06-30T09:43:03.715Z,8.16
2018-06-30T09:48:58.729Z,7.56
2018-06-30T09:54:53.747Z,6.86
2018-06-30T10:00:48.814Z,5.82
2018-06-30T10:06:46.095Z,4.88
2018-06-30T10:12:38.875Z,5.65
2018-06-30T10:18:33.770Z,4.8
2018-06-30T10:24:28.784Z,4.29
2018-06-30T10:30:23.818Z,3.56
2018-06-30T10:36:18.768Z,3.99
2018-06-30T10:42:13.901Z,3.93
2018-06-30T10:48:08.787Z,2.23
2018-06-30T10:54:03.799Z,3.11
2018-06-30T10:59:58.786Z,3.7
2018-06-30T11:05:53.850Z,4.18
2018-06-30T11:11:48.840Z,3.74
2018-06-30T11:17:46.605Z,2.94
2018-06-30T11:23:38.864Z,2.71
2018-06-30T11:29:33.852Z,2.44
2018-06-30T11:35:28.823Z,2.05
2018-06-30T11:41:23.887Z,1.54
2018-06-30T11:47:18.863Z,1.8
2018-06-30T11:53:13.879Z,1.5
2018-06-30T11:59:08.880Z,1.37
2018-06-30T12:05:03.854Z,1.28
2018-06-30T12:10:58.875Z,1.31
2018-06-30T12:16:53.905Z,1.28
2018-06-30T12:22:48.965Z,1.7
2018-06-30T12:28:43.862Z,1.99
2018-06-30T12:34:38.955Z,1.75
2018-06-30T12:40:33.928Z,1.95
2018-06-30T12:46:28.889Z,1.97
2018-06-30T12:52:23.895Z,2.06
2018-06-30T12:58:18.947Z,2.25
2018-06-30T13:04:13.946Z,2.34
2018-06-30T13:10:08.955Z,2.06
2018-06-30T13:16:04.019Z,2.64
2018-06-30T13:21:58.968Z,2.43
2018-06-30T13:27:53.918Z,2.55
2018-06-30T13:33:48.939Z,2.66
2018-06-30T13:39:43.966Z,2.22
2018-06-30T13:45:39.040Z,2.21
2018-06-30T13:51:33.970Z,2.02
2018-06-30T13:57:28.990Z,2.08
2018-06-30T14:03:23.992Z,1.73
2018-06-30T14:09:19.035Z,1.34
2018-06-30T14:15:14.027Z,1.71
2018-06-30T14:21:09.079Z,1.18
2018-06-30T14:27:04.040Z,1.21
2018-06-30T14:32:59.791Z,1.21
2018-06-30T14:38:53.995Z,1.18
2018-06-30T14:44:49.023Z,1.32
2018-06-30T14:50:44.085Z,1.06
2018-06-30T14:56:39.043Z,1.05
2018-06-30T15:02:34.090Z,1.18
2018-06-30T15:08:29.062Z,1.47
2018-06-30T15:14:24.032Z,0.99
2018-06-30T15:20:19.091Z,1.43
2018-06-30T15:26:14.076Z,1
2018-06-30T15:32:09.067Z,1.1
2018-06-30T15:38:04.071Z,0.92
2018-06-30T15:43:59.049Z,0.7
2018-06-30T15:49:54.087Z,0.96
2018-06-30T15:55:49.093Z,0.72
2018-06-30T16:01:44.066Z,0.78
2018-06-30T16:07:39.096Z,0.86
2018-06-30T16:13:34.080Z,0.59
2018-06-30T16:19:29.091Z,0.67
2018-06-30T16:25:24.133Z,1.42
2018-06-30T16:31:19.180Z,0.59
2018-06-30T16:37:14.195Z,0.63
2018-06-30T16:43:09.115Z,0.87
2018-06-30T16:49:04.141Z,0.84
2018-06-30T16:54:59.160Z,0.6
2018-06-30T17:00:54.137Z,0.48
2018-06-30T17:06:49.189Z,0.71
2018-06-30T17:12:44.176Z,0.49
2018-06-30T17:18:39.174Z,0.6
2018-06-30T17:24:34.197Z,0.68
2018-06-30T17:30:29.228Z,0.63
2018-06-30T17:36:24.211Z,1.23
2018-06-30T17:42:19.192Z,1.49
2018-06-30T17:48:14.211Z,0.82
2018-06-30T17:54:09.230Z,1.06
2018-06-30T18:00:04.204Z,1.42
2018-06-30T18:05:59.240Z,1.35
2018-06-30T18:11:54.217Z,1.58
2018-06-30T18:17:49.282Z,1.56
2018-06-30T18:23:44.183Z,2.5
2018-06-30T18:29:39.240Z,2.22
2018-06-30T18:35:34.309Z,8.28
2018-06-30T18:41:29.239Z,2.93
2018-06-30T18:47:24.234Z,2.42
2018-06-30T18:53:19.224Z,2.09
2018-06-30T18:59:14.267Z,1.76
2018-06-30T19:05:09.280Z,2.17
2018-06-30T19:11:04.245Z,2.59
2018-06-30T19:16:59.273Z,3.02
2018-06-30T19:22:54.280Z,1.82
2018-06-30T19:28:49.273Z,2.35
2018-06-30T19:34:44.295Z,2.28
2018-06-30T19:40:39.297Z,2.23
2018-06-30T19:46:34.358Z,2.4
2018-06-30T19:52:29.296Z,2.6
2018-06-30T19:58:24.300Z,2.23
2018-06-30T20:04:19.269Z,3.03
2018-06-30T20:10:14.275Z,2.73
2018-06-30T20:16:09.408Z,2.87
2018-06-30T20:22:04.316Z,2.81
2018-06-30T20:27:59.380Z,3.57
2018-06-30T20:33:54.334Z,2.56
2018-06-30T20:39:49.331Z,3.26
2018-06-30T20:45:44.364Z,2.89
2018-06-30T20:51:39.327Z,2.72
2018-06-30T20:57:34.364Z,3.15
2018-06-30T21:03:29.353Z,2.76
2018-06-30T21:09:24.380Z,3.49
2018-06-30T21:15:19.368Z,3.43
2018-06-30T21:21:14.401Z,2.91
2018-06-30T21:27:09.430Z,2.98
2018-06-30T21:33:04.366Z,3.31
2018-06-30T21:38:59.408Z,2.77
2018-06-30T21:44:54.448Z,2.88
2018-06-30T21:50:49.426Z,3.6
2018-06-30T21:56:44.378Z,4.43
2018-06-30T22:02:39.432Z,3.47
2018-06-30T22:08:34.421Z,3.33
2018-06-30T22:14:29.414Z,3.44
2018-06-30T22:20:24.447Z,3.7
2018-06-30T22:26:19.516Z,3.89
2018-06-30T22:32:14.465Z,3.76
2018-06-30T22:38:09.397Z,3.57
2018-06-30T22:44:04.451Z,3.98
2018-06-30T22:49:59.467Z,4.53
2018-06-30T22:55:54.485Z,3.94
2018-06-30T23:01:49.480Z,3.54
2018-06-30T23:07:44.488Z,4.01
2018-06-30T23:13:39.495Z,3.86
2018-06-30T23:19:34.466Z,3.97
2018-06-30T23:25:29.436Z,5.09
2018-06-30T23:31:24.459Z,3.93
2018-06-30T23:37:19.491Z,3.8
2018-06-30T23:43:14.565Z,4.22
2018-06-30T23:49:09.485Z,4.03
2018-06-30T23:55:04.491Z,3.88
